Time;durP1;ratioP1;P1;durP2;ratioP2;P2;SDS_P1;SDS_P2;PMS_P1;PMS_P2;Temp;Humidity;BMP_temperature;BMP_pressure;BME280_temperature;BME280_humidity;BME280_pressure;Samples;Min_cycle;Max_cycle;Signal;HPM_P1;HPM_P2
2023/06/09 00:00:49;;;;;;;0.75;0.50;;;22.20;80.80;;;;;;4433359;32;20092;-68
2023/06/09 00:03:16;;;;;;;0.70;0.70;;;22.10;81.20;;;;;;4434511;32;20081;-68
2023/06/09 00:05:42;;;;;;;0.35;0.35;;;22.10;81.90;;;;;;4437571;32;20064;-68
2023/06/09 00:08:08;;;;;;;1.08;0.52;;;21.80;82.80;;;;;;4438993;32;20069;-68
2023/06/09 00:10:33;;;;;;;1.62;0.70;;;21.80;83.30;;;;;;4419207;32;20102;-68
2023/06/09 00:13:00;;;;;;;0.35;0.35;;;21.60;84.10;;;;;;4438709;32;20488;-68
2023/06/09 00:15:25;;;;;;;1.50;1.00;;;21.50;83.90;;;;;;4440698;32;20119;-68
2023/06/09 00:17:53;;;;;;;1.73;0.85;;;21.50;83.40;;;;;;4439991;32;20053;-68
2023/06/09 00:20:19;;;;;;;3.37;0.88;;;21.60;82.60;;;;;;4438213;32;20078;-68
2023/06/09 00:22:45;;;;;;;0.93;0.45;;;21.60;82.10;;;;;;4440225;32;20052;-68
2023/06/09 00:25:12;;;;;;;0.40;0.40;;;21.60;81.80;;;;;;4437421;32;20065;-68
2023/06/09 00:27:40;;;;;;;1.65;0.77;;;21.60;81.60;;;;;;4422198;32;20070;-67
2023/06/09 00:30:07;;;;;;;4.30;1.37;;;21.60;80.90;;;;;;4423496;32;20161;-68
2023/06/09 00:32:32;;;;;;;6.68;0.82;;;21.60;80.70;;;;;;4438047;32;20093;-68
2023/06/09 00:34:58;;;;;;;0.75;0.60;;;21.70;79.70;;;;;;4436916;32;20592;-67
2023/06/09 00:37:23;;;;;;;0.37;0.37;;;21.70;78.70;;;;;;4437162;32;20108;-68
2023/06/09 00:39:49;;;;;;;2.92;0.73;;;21.70;78.40;;;;;;4442012;32;20390;-67
2023/06/09 00:42:14;;;;;;;0.30;0.30;;;21.60;78.90;;;;;;4436093;32;20130;-67
2023/06/09 00:44:40;;;;;;;0.70;0.70;;;21.60;78.70;;;;;;4436544;32;20105;-68
2023/06/09 00:47:06;;;;;;;35.95;1.00;;;21.50;78.40;;;;;;4434404;32;20151;-68
2023/06/09 00:49:34;;;;;;;0.40;0.40;;;21.50;78.60;;;;;;4437213;32;20447;-67
2023/06/09 00:52:00;;;;;;;0.30;0.30;;;21.20;78.50;;;;;;4420147;32;20609;-67
2023/06/09 00:54:26;;;;;;;0.28;0.28;;;21.10;79.10;;;;;;4422377;32;20069;-68
2023/06/09 00:56:52;;;;;;;0.22;0.22;;;21.00;78.90;;;;;;4439067;32;20120;-67
2023/06/09 00:59:18;;;;;;;0.85;0.65;;;21.00;79.00;;;;;;4438198;32;20463;-67
2023/06/09 01:01:44;;;;;;;0.40;0.40;;;21.20;78.40;;;;;;4435016;32;20105;-68
2023/06/09 01:04:12;;;;;;;0.62;0.40;;;21.20;77.80;;;;;;4434611;32;20823;-67
2023/06/09 01:06:56;;;;;;;0.65;0.60;;;21.20;77.80;;;;;;4435593;32;20089;-68
2023/06/09 01:09:34;;;;;;;0.50;0.50;;;20.90;79.30;;;;;;4435541;32;20074;-67
2023/06/09 01:12:27;;;;;;;0.43;0.43;;;20.90;79.00;;;;;;4433974;32;20061;-67
2023/06/09 01:15:03;;;;;;;0.50;0.45;;;20.80;79.20;;;;;;4426202;32;20072;-67
2023/06/09 01:17:32;;;;;;;0.70;0.68;;;20.70;80.40;;;;;;4441974;32;20045;-68
2023/06/09 01:20:05;;;;;;;0.22;0.22;;;20.60;80.30;;;;;;4437716;32;20093;-67
2023/06/09 01:22:52;;;;;;;0.57;0.57;;;20.50;80.90;;;;;;4437396;32;20089;-68
2023/06/09 01:25:28;;;;;;;0.52;0.52;;;20.40;81.30;;;;;;4422306;32;20069;-68
2023/06/09 01:27:57;;;;;;;0.30;0.30;;;20.40;81.60;;;;;;4440171;32;20080;-67
2023/06/09 01:30:29;;;;;;;1.15;0.73;;;20.50;81.60;;;;;;4435062;32;20076;-67
2023/06/09 01:32:57;;;;;;;1.23;0.82;;;20.40;81.60;;;;;;4436326;32;20591;-67
2023/06/09 01:35:23;;;;;;;0.43;0.37;;;20.50;81.20;;;;;;4437391;32;20506;-67
2023/06/09 01:37:49;;;;;;;0.75;0.55;;;20.50;80.90;;;;;;4439216;32;20073;-67
2023/06/09 01:40:15;;;;;;;0.50;0.50;;;20.60;81.00;;;;;;4439969;32;20081;-67
2023/06/09 01:42:40;;;;;;;0.40;0.40;;;20.40;81.70;;;;;;4438792;32;20058;-67
2023/06/09 01:45:06;;;;;;;0.20;0.20;;;20.20;82.30;;;;;;4434569;32;20073;-67
2023/06/09 01:47:32;;;;;;;0.30;0.30;;;20.20;82.80;;;;;;4438166;32;20105;-67
2023/06/09 01:50:02;;;;;;;2.08;0.50;;;20.20;82.80;;;;;;4444241;32;20093;-67
2023/06/09 01:52:37;;;;;;;1.27;0.57;;;20.20;83.20;;;;;;4439450;32;20084;-67
2023/06/09 01:55:11;;;;;;;0.32;0.32;;;20.00;84.00;;;;;;4435933;32;20077;-67
2023/06/09 01:57:50;;;;;;;0.65;0.47;;;19.80;84.70;;;;;;4439786;32;20069;-67
2023/06/09 02:00:16;;;;;;;1.50;0.93;;;19.70;85.70;;;;;;4437004;32;20078;-67
2023/06/09 02:02:46;;;;;;;1.75;0.77;;;19.50;86.90;;;;;;4422368;32;20068;-67
2023/06/09 02:05:15;;;;;;;0.40;0.40;;;19.40;87.60;;;;;;4437450;32;20385;-67
2023/06/09 02:07:41;;;;;;;0.65;0.60;;;19.40;87.80;;;;;;4441376;32;20078;-67
2023/06/09 02:10:07;;;;;;;1.75;0.60;;;19.40;88.20;;;;;;4439903;32;20101;-66
2023/06/09 02:12:33;;;;;;;0.70;0.45;;;19.40;89.10;;;;;;4436310;32;20061;-67
2023/06/09 02:15:01;;;;;;;1.20;0.70;;;19.40;89.40;;;;;;4433988;32;20104;-66
2023/06/09 02:17:27;;;;;;;0.68;0.50;;;19.30;89.80;;;;;;4440816;32;20082;-66
2023/06/09 02:19:53;;;;;;;1.75;0.93;;;19.30;90.40;;;;;;4438175;32;20068;-66
2023/06/09 02:22:19;;;;;;;4.03;0.80;;;19.30;90.50;;;;;;4439310;32;20115;-66
2023/06/09 02:24:44;;;;;;;0.65;0.62;;;19.30;90.70;;;;;;4436941;32;20219;-67
2023/06/09 02:27:09;;;;;;;0.40;0.40;;;19.30;91.00;;;;;;4437521;32;20500;-66
2023/06/09 02:29:35;;;;;;;0.55;0.55;;;19.30;91.10;;;;;;4424587;32;20096;-68
2023/06/09 02:32:01;;;;;;;0.70;0.70;;;19.30;91.20;;;;;;4436907;32;20104;-68
2023/06/09 02:34:27;;;;;;;0.40;0.40;;;19.20;91.50;;;;;;4436987;32;20117;-68
2023/06/09 02:36:54;;;;;;;3.83;1.23;;;19.20;91.90;;;;;;4439471;32;20057;-68
2023/06/09 02:39:21;;;;;;;0.73;0.73;;;19.20;91.80;;;;;;4440059;32;20061;-68
2023/06/09 02:41:47;;;;;;;0.40;0.40;;;19.20;92.30;;;;;;4437006;32;20093;-68
2023/06/09 02:44:13;;;;;;;0.40;0.40;;;19.00;92.70;;;;;;4442223;32;20081;-68
2023/06/09 02:46:40;;;;;;;1.23;0.93;;;19.00;93.00;;;;;;4425510;32;20061;-68
2023/06/09 02:49:06;;;;;;;0.68;0.62;;;19.00;93.10;;;;;;4439555;32;20129;-68
2023/06/09 02:51:32;;;;;;;0.45;0.45;;;19.00;93.20;;;;;;4436034;32;20062;-68
2023/06/09 02:53:57;;;;;;;0.55;0.55;;;19.00;93.30;;;;;;4438666;32;20065;-68
2023/06/09 02:56:23;;;;;;;1.70;0.62;;;19.10;93.40;;;;;;4438639;32;20097;-68
2023/06/09 02:58:50;;;;;;;0.50;0.50;;;19.10;93.20;;;;;;4427073;32;20079;-67
2023/06/09 03:01:17;;;;;;;0.40;0.40;;;19.20;93.30;;;;;;4441560;32;20068;-68
2023/06/09 03:03:44;;;;;;;1.42;1.30;;;19.10;93.30;;;;;;4441936;32;20077;-68
2023/06/09 03:06:09;;;;;;;0.60;0.50;;;19.10;93.50;;;;;;4436225;32;20054;-68
2023/06/09 03:08:35;;;;;;;0.90;0.50;;;18.90;93.70;;;;;;4438352;32;20061;-68
2023/06/09 03:11:01;;;;;;;1.40;0.60;;;18.90;94.00;;;;;;4438416;32;20069;-68
2023/06/09 03:13:26;;;;;;;0.95;0.60;;;18.80;94.50;;;;;;4438198;32;20093;-67
2023/06/09 03:15:54;;;;;;;1.77;0.57;;;18.80;94.60;;;;;;4438370;32;20091;-67
2023/06/09 03:18:19;;;;;;;0.62;0.60;;;18.60;95.10;;;;;;4424372;32;20085;-67
2023/06/09 03:20:45;;;;;;;0.80;0.80;;;18.70;95.60;;;;;;4437873;32;20088;-67
2023/06/09 03:23:10;;;;;;;2.33;0.50;;;18.60;95.90;;;;;;4437323;32;20305;-67
2023/06/09 03:25:37;;;;;;;0.50;0.50;;;18.60;96.20;;;;;;4435296;32;20097;-67
2023/06/09 03:28:02;;;;;;;0.50;0.50;;;18.50;96.70;;;;;;4436977;32;20073;-67
2023/06/09 03:30:28;;;;;;;5.87;1.75;;;18.50;96.80;;;;;;4438332;32;20168;-67
2023/06/09 03:32:53;;;;;;;0.65;0.65;;;18.60;96.80;;;;;;4437709;32;20069;-67
2023/06/09 03:35:20;;;;;;;2.85;0.70;;;18.60;96.90;;;;;;4435962;32;20061;-66
2023/06/09 03:37:46;;;;;;;0.98;0.62;;;18.60;97.00;;;;;;4417194;32;20089;-67
2023/06/09 03:40:12;;;;;;;0.50;0.50;;;18.70;97.10;;;;;;4433158;32;20073;-67
2023/06/09 03:42:37;;;;;;;0.62;0.50;;;18.70;97.10;;;;;;4436588;32;20078;-67
2023/06/09 03:45:03;;;;;;;0.50;0.50;;;18.80;97.00;;;;;;4438280;32;20058;-66
2023/06/09 03:47:28;;;;;;;0.40;0.40;;;18.80;97.10;;;;;;4437019;32;20132;-67
2023/06/09 03:49:54;;;;;;;0.62;0.62;;;18.90;96.90;;;;;;4439386;32;20787;-67
2023/06/09 03:52:21;;;;;;;1.33;0.57;;;18.90;97.30;;;;;;4438337;32;20094;-67
2023/06/09 03:54:47;;;;;;;0.40;0.40;;;18.90;97.00;;;;;;4438239;32;20112;-67
2023/06/09 03:57:13;;;;;;;0.55;0.55;;;18.90;97.20;;;;;;4435323;32;20065;-67
2023/06/09 03:59:38;;;;;;;0.45;0.45;;;18.70;97.40;;;;;;4437587;32;20434;-67
2023/06/09 04:02:04;;;;;;;0.47;0.47;;;18.80;97.30;;;;;;4437251;32;20746;-67
2023/06/09 04:04:29;;;;;;;1.42;0.95;;;18.80;97.30;;;;;;4437560;32;20097;-67
2023/06/09 04:06:56;;;;;;;0.50;0.50;;;18.90;97.00;;;;;;4436847;32;20101;-67
2023/06/09 04:09:21;;;;;;;0.73;0.50;;;18.90;96.90;;;;;;4436536;32;20093;-67
2023/06/09 04:11:47;;;;;;;0.40;0.40;;;18.90;96.70;;;;;;4422506;32;20089;-67
2023/06/09 04:14:13;;;;;;;0.30;0.30;;;19.00;96.50;;;;;;4425421;32;20112;-67
2023/06/09 04:16:38;;;;;;;2.12;0.77;;;18.90;95.60;;;;;;4434987;32;20085;-67
2023/06/09 04:19:04;;;;;;;0.40;0.40;;;19.00;95.00;;;;;;4436593;32;20069;-67
2023/06/09 04:21:30;;;;;;;0.77;0.57;;;19.10;94.60;;;;;;4429364;32;20089;-67
2023/06/09 04:23:55;;;;;;;0.57;0.52;;;19.20;94.70;;;;;;4436141;32;20138;-67
2023/06/09 04:26:21;;;;;;;7.22;2.03;;;19.10;94.60;;;;;;4435500;32;20077;-66
2023/06/09 04:28:47;;;;;;;0.40;0.40;;;19.20;94.90;;;;;;4437459;32;20080;-67
2023/06/09 04:31:13;;;;;;;0.95;0.75;;;19.20;94.90;;;;;;4422766;32;20064;-67
2023/06/09 04:33:39;;;;;;;0.47;0.47;;;19.20;94.80;;;;;;4434452;32;20061;-67
2023/06/09 04:36:05;;;;;;;0.85;0.47;;;19.20;94.30;;;;;;4436395;32;20069;-67
2023/06/09 04:38:33;;;;;;;0.98;0.47;;;19.20;94.60;;;;;;4435314;32;20085;-67
2023/06/09 04:41:02;;;;;;;2.58;1.10;;;19.20;94.10;;;;;;4431532;32;20057;-67
2023/06/09 04:43:32;;;;;;;0.88;0.40;;;19.20;93.30;;;;;;4434061;32;20061;-67
2023/06/09 04:45:59;;;;;;;0.62;0.62;;;19.30;93.00;;;;;;4434116;32;20069;-67
2023/06/09 04:48:25;;;;;;;0.43;0.40;;;19.40;92.30;;;;;;4436258;32;20084;-67
2023/06/09 04:50:51;;;;;;;0.62;0.62;;;19.40;91.60;;;;;;4434751;32;20092;-67
2023/06/09 04:53:19;;;;;;;2.17;0.55;;;19.50;90.70;;;;;;4435161;32;20196;-67
2023/06/09 04:55:45;;;;;;;0.57;0.47;;;19.50;90.70;;;;;;4435863;32;20061;-67
2023/06/09 04:58:11;;;;;;;0.70;0.70;;;19.60;89.80;;;;;;4432511;32;20566;-67
2023/06/09 05:00:37;;;;;;;0.30;0.30;;;19.60;90.00;;;;;;4432651;32;20081;-67
2023/06/09 05:03:03;;;;;;;1.00;0.70;;;19.70;86.40;;;;;;4428655;32;20069;-67
2023/06/09 05:05:29;;;;;;;0.30;0.30;;;19.70;85.40;;;;;;4430982;32;20443;-67
2023/06/09 05:07:54;;;;;;;0.20;0.20;;;19.70;85.00;;;;;;4432101;32;20096;-66
2023/06/09 05:10:20;;;;;;;0.25;0.25;;;19.70;85.80;;;;;;4435408;32;20061;-66
2023/06/09 05:12:45;;;;;;;1.15;0.45;;;19.70;84.30;;;;;;4435719;32;20115;-66
2023/06/09 05:15:11;;;;;;;1.23;0.90;;;19.80;82.60;;;;;;4434527;32;20066;-66
2023/06/09 05:17:37;;;;;;;0.60;0.45;;;20.00;80.70;;;;;;4424174;32;20085;-66
2023/06/09 05:20:05;;;;;;;5.35;1.17;;;20.10;80.00;;;;;;4431898;32;20072;-66
2023/06/09 05:22:32;;;;;;;8.88;0.77;;;20.10;79.70;;;;;;4418572;32;20205;-66
2023/06/09 05:24:57;;;;;;;0.30;0.30;;;20.20;79.30;;;;;;4428697;32;20109;-66
2023/06/09 05:27:24;;;;;;;0.22;0.22;;;20.20;78.90;;;;;;4415307;32;20085;-66
2023/06/09 05:29:50;;;;;;;1.48;0.82;;;20.30;79.40;;;;;;4425259;32;20104;-67
2023/06/09 05:32:15;;;;;;;0.60;0.52;;;20.30;78.40;;;;;;4408625;32;20545;-67
2023/06/09 05:34:44;;;;;;;0.30;0.30;;;20.40;79.00;;;;;;4426109;32;20513;-67
2023/06/09 05:37:12;;;;;;;0.30;0.30;;;20.50;78.20;;;;;;4421847;32;20223;-66
2023/06/09 05:39:40;;;;;;;0.50;0.50;;;20.50;76.70;;;;;;4422892;32;20474;-66
2023/06/09 05:42:08;;;;;;;0.30;0.30;;;20.60;76.40;;;;;;4429220;32;20081;-68
2023/06/09 05:44:34;;;;;;;0.47;0.45;;;20.60;74.70;;;;;;4423271;32;20074;-67
2023/06/09 05:47:00;;;;;;;1.65;0.52;;;20.70;74.00;;;;;;4407499;32;20085;-67
2023/06/09 05:49:26;;;;;;;0.47;0.47;;;20.80;73.90;;;;;;4399126;32;20101;-68
2023/06/09 05:51:52;;;;;;;0.28;0.28;;;20.90;73.90;;;;;;4410685;32;20069;-67
2023/06/09 05:54:18;;;;;;;0.20;0.20;;;20.90;74.10;;;;;;4395821;32;20129;-67
2023/06/09 05:56:44;;;;;;;2.15;0.50;;;21.00;74.20;;;;;;4407991;32;20081;-68
2023/06/09 05:59:11;;;;;;;3.17;1.67;;;21.10;75.10;;;;;;4397527;32;20892;-67
2023/06/09 06:01:38;;;;;;;0.20;0.20;;;21.20;74.40;;;;;;4403131;32;20406;-67
2023/06/09 06:04:03;;;;;;;0.75;0.57;;;21.20;71.10;;;;;;4410009;32;20400;-67
2023/06/09 06:06:30;;;;;;;14.40;1.50;;;21.40;70.00;;;;;;4403997;32;20145;-67
2023/06/09 06:08:56;;;;;;;0.30;0.30;;;21.50;71.10;;;;;;4403871;32;20212;-67
2023/06/09 06:11:21;;;;;;;4.78;0.65;;;21.50;69.40;;;;;;4388293;32;21673;-67
2023/06/09 06:13:47;;;;;;;0.30;0.30;;;21.60;68.50;;;;;;4398826;32;20128;-66
2023/06/09 06:16:12;;;;;;;0.43;0.43;;;21.60;68.20;;;;;;4399813;32;20669;-68
2023/06/09 06:18:38;;;;;;;0.73;0.73;;;21.60;68.60;;;;;;4406888;32;20088;-68
2023/06/09 06:21:04;;;;;;;0.32;0.32;;;21.70;69.10;;;;;;4401283;32;20726;-69
2023/06/09 06:23:29;;;;;;;0.20;0.20;;;21.70;68.50;;;;;;4414004;32;20780;-68
2023/06/09 06:25:55;;;;;;;0.20;0.20;;;21.80;68.00;;;;;;4396305;32;20099;-68
2023/06/09 06:28:21;;;;;;;0.20;0.20;;;21.90;67.20;;;;;;4409700;32;20776;-68
2023/06/09 06:30:47;;;;;;;2.72;0.70;;;22.00;66.70;;;;;;4407102;32;20102;-67
2023/06/09 06:33:13;;;;;;;0.40;0.37;;;22.00;67.70;;;;;;4416875;32;20085;-68
2023/06/09 06:35:39;;;;;;;1.17;1.00;;;22.10;67.60;;;;;;4404401;32;20082;-68
2023/06/09 06:38:04;;;;;;;0.98;0.77;;;22.10;67.00;;;;;;4408990;32;20100;-68
2023/06/09 06:40:30;;;;;;;1.70;0.90;;;22.20;66.80;;;;;;4415573;32;20129;-68
2023/06/09 06:42:55;;;;;;;0.20;0.20;;;22.20;67.10;;;;;;4403781;32;20080;-69
2023/06/09 06:45:22;;;;;;;0.40;0.40;;;22.20;66.90;;;;;;4402443;32;20289;-68
2023/06/09 06:47:49;;;;;;;0.30;0.30;;;22.20;67.30;;;;;;4410886;32;20147;-68
2023/06/09 06:50:15;;;;;;;0.77;0.77;;;22.20;66.90;;;;;;4408473;32;20200;-67
2023/06/09 06:52:41;;;;;;;0.57;0.40;;;22.20;67.60;;;;;;4407275;32;20629;-68
2023/06/09 06:55:07;;;;;;;0.30;0.30;;;22.20;67.00;;;;;;4395279;32;20088;-67
2023/06/09 06:57:34;;;;;;;0.40;0.40;;;22.20;67.80;;;;;;4411450;32;20298;-66
2023/06/09 06:59:59;;;;;;;0.50;0.50;;;22.20;68.10;;;;;;4414981;32;20133;-68
2023/06/09 07:02:25;;;;;;;0.22;0.22;;;22.30;68.90;;;;;;4409635;32;20197;-67
2023/06/09 07:04:50;;;;;;;0.32;0.32;;;22.40;68.80;;;;;;4407886;32;20581;-70
2023/06/09 07:07:16;;;;;;;0.20;0.20;;;22.40;69.20;;;;;;4413026;32;20073;-68
2023/06/09 07:09:45;;;;;;;0.95;0.73;;;22.60;69.70;;;;;;4413258;32;20615;-69
2023/06/09 07:12:10;;;;;;;0.32;0.32;;;22.60;69.60;;;;;;4395721;32;20208;-68
2023/06/09 07:14:36;;;;;;;0.55;0.55;;;22.80;70.40;;;;;;4415564;32;20076;-67
2023/06/09 07:17:01;;;;;;;0.70;0.70;;;22.90;69.40;;;;;;4417888;32;20100;-65
2023/06/09 07:19:27;;;;;;;0.57;0.57;;;22.90;70.20;;;;;;4413905;32;20089;-68
2023/06/09 07:21:53;;;;;;;0.60;0.55;;;23.00;70.50;;;;;;4411914;32;20090;-66
2023/06/09 07:24:18;;;;;;;0.70;0.62;;;23.10;70.70;;;;;;4417205;32;20061;-65
2023/06/09 07:26:44;;;;;;;1.23;0.95;;;23.20;70.40;;;;;;4413644;32;20141;-69
2023/06/09 07:29:15;;;;;;;1.15;0.57;;;23.40;70.60;;;;;;4418209;32;20057;-68
2023/06/09 07:31:41;;;;;;;1.60;0.80;;;23.50;69.60;;;;;;4387959;32;20656;-68
2023/06/09 07:34:06;;;;;;;0.50;0.50;;;23.50;70.20;;;;;;4398251;32;20117;-68
2023/06/09 07:36:34;;;;;;;0.62;0.50;;;23.60;70.40;;;;;;4407669;32;20135;-66
2023/06/09 07:39:03;;;;;;;0.30;0.30;;;23.70;70.70;;;;;;4418576;32;20629;-68
2023/06/09 07:41:30;;;;;;;0.40;0.40;;;23.80;69.30;;;;;;4421892;32;20980;-67
2023/06/09 07:43:56;;;;;;;0.98;0.88;;;23.90;69.30;;;;;;4418772;32;20065;-68
2023/06/09 07:46:22;;;;;;;0.85;0.68;;;24.10;67.50;;;;;;4415678;32;20131;-68
2023/06/09 07:48:49;;;;;;;1.27;0.70;;;24.30;66.40;;;;;;4400679;32;20089;-66
2023/06/09 07:51:16;;;;;;;0.20;0.20;;;24.60;65.50;;;;;;4405072;32;20373;-67
2023/06/09 07:53:42;;;;;;;3.20;1.33;;;24.70;64.80;;;;;;4399309;32;20272;-68
2023/06/09 07:56:08;;;;;;;0.32;0.32;;;24.80;64.40;;;;;;4414913;32;20528;-65
2023/06/09 07:58:36;;;;;;;1.23;0.95;;;24.90;64.60;;;;;;4409085;32;20076;-67
2023/06/09 08:01:02;;;;;;;0.40;0.40;;;24.80;63.90;;;;;;4393186;32;20077;-66
2023/06/09 08:03:29;;;;;;;0.98;0.40;;;24.50;65.30;;;;;;4379359;32;20329;-65
2023/06/09 08:05:55;;;;;;;0.40;0.40;;;24.50;65.40;;;;;;4398377;32;20097;-66
2023/06/09 08:08:21;;;;;;;0.62;0.62;;;24.80;66.00;;;;;;4403053;32;20334;-65
2023/06/09 08:10:46;;;;;;;1.17;0.32;;;25.10;64.40;;;;;;4403426;32;20525;-67
2023/06/09 08:13:15;;;;;;;1.10;0.95;;;25.20;64.80;;;;;;4404856;32;20081;-67
2023/06/09 08:15:44;;;;;;;0.37;0.37;;;25.30;65.60;;;;;;4406537;32;20151;-65
2023/06/09 08:18:10;;;;;;;7.87;1.25;;;25.50;64.60;;;;;;4402155;32;20536;-65
2023/06/09 08:20:42;;;;;;;0.85;0.37;;;25.70;64.00;;;;;;4404862;32;20600;-67
2023/06/09 08:23:08;;;;;;;1.10;0.80;;;25.90;64.00;;;;;;4413494;32;20169;-66
2023/06/09 08:25:35;;;;;;;0.65;0.52;;;25.90;63.50;;;;;;4407656;32;20725;-67
2023/06/09 08:28:03;;;;;;;0.30;0.30;;;25.90;63.90;;;;;;4412000;32;20655;-67
2023/06/09 08:30:28;;;;;;;0.60;0.60;;;26.00;64.10;;;;;;4408723;32;20157;-66
2023/06/09 08:33:01;;;;;;;0.98;0.47;;;26.00;63.90;;;;;;4400922;32;20073;-67
2023/06/09 08:35:31;;;;;;;0.20;0.20;;;25.90;63.70;;;;;;4408678;32;20140;-67
2023/06/09 08:37:57;;;;;;;;;;;25.90;63.70;;;;;;4410482;32;22292;-67
2023/06/09 08:40:23;;;;;;;0.30;0.30;;;25.60;64.70;;;;;;4405195;32;20624;-66
2023/06/09 08:42:55;;;;;;;1.17;0.75;;;25.50;65.60;;;;;;4407922;32;20113;-66
2023/06/09 08:45:22;;;;;;;0.20;0.20;;;25.30;64.70;;;;;;4390008;32;21137;-67
2023/06/09 08:47:49;;;;;;;0.50;0.50;;;25.10;65.40;;;;;;4392383;32;20113;-68
2023/06/09 08:50:18;;;;;;;0.30;0.30;;;25.10;64.70;;;;;;4392643;32;20422;-65
2023/06/09 08:52:44;;;;;;;0.40;0.40;;;25.10;65.90;;;;;;4406982;32;20941;-67
2023/06/09 08:55:12;;;;;;;0.22;0.22;;;25.00;66.10;;;;;;4410385;32;20145;-66
2023/06/09 08:57:39;;;;;;;0.20;0.20;;;25.10;66.20;;;;;;4407859;32;20085;-67
2023/06/09 09:00:09;;;;;;;0.40;0.40;;;25.40;65.70;;;;;;4394155;32;20128;-64
2023/06/09 09:02:37;;;;;;;0.23;0.23;;;25.40;65.30;;;;;;4415687;32;20655;-67
2023/06/09 09:05:03;;;;;;;0.40;0.40;;;25.40;66.80;;;;;;4399549;32;20300;-67
2023/06/09 09:07:29;;;;;;;0.32;0.32;;;25.40;66.40;;;;;;4413070;32;20077;-66
2023/06/09 09:09:58;;;;;;;0.40;0.40;;;25.20;65.90;;;;;;4405906;32;20097;-67
2023/06/09 09:12:24;;;;;;;1.02;0.70;;;25.00;66.50;;;;;;4404599;32;20829;-67
2023/06/09 09:14:49;;;;;;;0.30;0.30;;;25.00;67.00;;;;;;4406866;32;20335;-66
2023/06/09 09:17:15;;;;;;;0.55;0.55;;;25.10;67.60;;;;;;4413821;32;20076;-67
2023/06/09 09:19:45;;;;;;;0.55;0.50;;;25.10;67.90;;;;;;4417988;32;20089;-67
2023/06/09 09:22:11;;;;;;;2.37;1.23;;;25.00;68.60;;;;;;4411468;32;20086;-66
2023/06/09 09:24:43;;;;;;;6.65;0.82;;;24.90;68.00;;;;;;4413407;32;20077;-66
2023/06/09 09:27:27;;;;;;;0.40;0.40;;;24.90;68.20;;;;;;4403686;32;20134;-66
2023/06/09 09:29:53;;;;;;;0.57;0.50;;;24.90;67.60;;;;;;4410002;32;20626;-64
2023/06/09 09:32:25;;;;;;;0.28;0.28;;;24.90;67.00;;;;;;4413605;32;20725;-65
2023/06/09 09:34:51;;;;;;;2.83;0.40;;;25.20;66.80;;;;;;4416651;32;20101;-66
2023/06/09 09:37:16;;;;;;;0.30;0.30;;;25.40;66.60;;;;;;4421320;32;20093;-65
2023/06/09 09:39:51;;;;;;;0.40;0.32;;;25.60;66.60;;;;;;4428965;32;20069;-65
2023/06/09 09:42:19;;;;;;;0.30;0.30;;;25.60;66.50;;;;;;4419037;32;20101;-67
2023/06/09 09:44:50;;;;;;;0.20;0.20;;;25.40;66.50;;;;;;4405934;32;20097;-66
2023/06/09 09:47:17;;;;;;;0.52;0.43;;;25.70;66.40;;;;;;4423914;32;20089;-67
2023/06/09 09:49:58;;;;;;;16.10;0.95;;;26.10;65.50;;;;;;4406124;32;20073;-64
2023/06/09 09:52:27;;;;;;;1.75;0.40;;;26.50;65.60;;;;;;4398024;32;20116;-65
2023/06/09 09:54:53;;;;;;;1.55;1.20;;;27.00;65.70;;;;;;4424545;26;20222;-75
2023/06/09 09:57:20;;;;;;;0.20;0.20;;;27.30;66.20;;;;;;4373135;32;20097;-73
2023/06/09 09:59:47;;;;;;;1.58;0.90;;;27.40;65.70;;;;;;4375021;32;20098;-74
2023/06/09 10:02:23;;;;;;;0.37;0.37;;;27.60;65.30;;;;;;4359959;32;20140;-76
2023/06/09 10:04:50;;;;;;;0.32;0.20;;;27.70;65.10;;;;;;4374633;32;20187;-75
2023/06/09 10:07:21;;;;;;;0.52;0.52;;;27.80;64.20;;;;;;4366302;32;20093;-76
2023/06/09 10:09:49;;;;;;;;;;;28.00;64.80;;;;;;4366930;32;20107;-75
2023/06/09 10:12:15;;;;;;;0.30;0.30;;;28.20;64.00;;;;;;4367581;32;19968;-76
2023/06/09 10:14:41;;;;;;;0.20;0.20;;;28.20;65.10;;;;;;4363553;32;20674;-73
2023/06/09 10:17:08;;;;;;;0.20;0.20;;;28.30;65.00;;;;;;4369418;32;20319;-72
2023/06/09 10:19:34;;;;;;;0.50;0.50;;;28.40;63.60;;;;;;4366403;32;22024;-73
2023/06/09 10:22:00;;;;;;;0.20;0.20;;;28.50;63.70;;;;;;4384713;32;20066;-73
2023/06/09 10:24:26;;;;;;;0.55;0.30;;;28.50;62.50;;;;;;4391440;32;20108;-74
2023/06/09 10:26:53;;;;;;;0.32;0.32;;;28.90;62.80;;;;;;4381391;32;20433;-74
2023/06/09 10:29:20;;;;;;;0.30;0.30;;;28.90;63.10;;;;;;4383157;32;20532;-72
2023/06/09 10:31:46;;;;;;;0.30;0.30;;;29.10;62.00;;;;;;4387558;32;20073;-73
2023/06/09 10:34:14;;;;;;;0.40;0.40;;;29.10;61.30;;;;;;4386600;32;20066;-73
2023/06/09 10:36:41;;;;;;;1.23;0.73;;;29.30;60.50;;;;;;4385629;32;20151;-75
2023/06/09 10:39:30;;;;;;;0.17;0.17;;;29.50;60.50;;;;;;4378557;32;20604;-74
2023/06/09 10:42:10;;;;;;;0.20;0.20;;;29.70;61.20;;;;;;4382841;32;20077;-74
2023/06/09 10:44:45;;;;;;;0.45;0.45;;;29.90;60.00;;;;;;4392008;32;20128;-73
2023/06/09 10:47:10;;;;;;;0.28;0.25;;;29.90;59.30;;;;;;4401850;32;20202;-74
2023/06/09 10:49:39;;;;;;;0.10;0.10;;;29.80;58.20;;;;;;4392017;32;20448;-74
2023/06/09 10:52:06;;;;;;;0.30;0.30;;;30.00;58.10;;;;;;4400706;32;20636;-74
2023/06/09 10:54:35;;;;;;;0.13;0.13;;;30.10;58.60;;;;;;4375268;32;20538;-74
2023/06/09 10:57:03;;;;;;;1.70;0.80;;;30.10;58.20;;;;;;4373623;32;21170;-74
2023/06/09 10:59:31;;;;;;;0.62;0.50;;;30.20;57.00;;;;;;4386713;32;20061;-73
2023/06/09 11:02:02;;;;;;;0.10;0.10;;;30.50;58.50;;;;;;4397717;32;20109;-75
2023/06/09 11:04:49;;;;;;;1.75;0.95;;;30.60;57.00;;;;;;4399629;32;20089;-74
2023/06/09 11:07:17;;;;;;;0.13;0.13;;;31.10;57.90;;;;;;4379864;32;20062;-74
2023/06/09 11:09:53;;;;;;;0.10;0.10;;;31.40;57.20;;;;;;4401375;32;20132;-75
2023/06/09 11:12:25;;;;;;;0.90;0.55;;;31.50;57.20;;;;;;4405229;32;20069;-75
2023/06/09 11:14:56;;;;;;;0.35;0.32;;;31.10;57.50;;;;;;4396531;32;20089;-72
2023/06/09 11:17:25;;;;;;;0.30;0.30;;;31.50;58.40;;;;;;4400102;32;20121;-76
2023/06/09 11:20:09;;;;;;;1.10;0.43;;;31.30;56.90;;;;;;4402141;32;20129;-74
2023/06/09 11:22:58;;;;;;;0.10;0.10;;;31.40;56.00;;;;;;4407823;32;20154;-74
2023/06/09 11:25:26;;;;;;;0.20;0.20;;;31.70;55.90;;;;;;4385940;32;20667;-74
2023/06/09 11:27:57;;;;;;;0.20;0.20;;;31.60;55.40;;;;;;4393341;32;20159;-73
2023/06/09 11:30:25;;;;;;;0.45;0.43;;;31.80;55.60;;;;;;4389318;32;20930;-73
2023/06/09 11:32:56;;;;;;;0.10;0.10;;;32.20;54.60;;;;;;4384078;32;20474;-74
2023/06/09 11:35:26;;;;;;;0.10;0.10;;;32.40;53.30;;;;;;4380552;32;21261;-75
2023/06/09 11:37:52;;;;;;;0.55;0.52;;;32.30;52.70;;;;;;4371401;32;20110;-74
2023/06/09 11:40:18;;;;;;;0.40;0.20;;;32.50;52.60;;;;;;4381846;32;20164;-74
2023/06/09 11:42:45;;;;;;;0.20;0.20;;;32.50;52.60;;;;;;4382563;32;20218;-75
2023/06/09 11:45:11;;;;;;;0.77;0.73;;;32.60;52.60;;;;;;4382694;32;102509;-74
2023/06/09 11:47:40;;;;;;;0.15;0.10;;;32.90;53.30;;;;;;4389953;32;20066;-75
2023/06/09 11:50:10;;;;;;;0.30;0.30;;;33.10;53.00;;;;;;4395899;32;21028;-75
2023/06/09 11:52:35;;;;;;;0.15;0.15;;;33.30;52.70;;;;;;4398929;32;20516;-74
2023/06/09 11:55:03;;;;;;;0.40;0.32;;;33.00;52.20;;;;;;4399208;32;20229;-75
2023/06/09 11:57:31;;;;;;;0.30;0.30;;;33.10;52.10;;;;;;4403721;32;20124;-76
2023/06/09 11:59:57;;;;;;;0.30;0.10;;;33.80;52.30;;;;;;4403019;32;20073;-78
2023/06/09 12:02:22;;;;;;;0.22;0.22;;;34.00;52.30;;;;;;4404555;32;20098;-76
2023/06/09 12:04:49;;;;;;;0.10;0.10;;;33.80;51.90;;;;;;4401349;32;20407;-78
2023/06/09 12:07:16;;;;;;;0.20;0.20;;;33.80;51.90;;;;;;4402389;32;21264;-78
2023/06/09 12:09:42;;;;;;;0.30;0.30;;;34.10;51.40;;;;;;4401562;32;20198;-75
2023/06/09 12:12:09;;;;;;;0.22;0.20;;;34.40;51.40;;;;;;4410386;32;20151;-77
2023/06/09 12:14:38;;;;;;;0.62;0.35;;;34.70;51.20;;;;;;4406889;32;20088;-76
2023/06/09 12:17:04;;;;;;;1.43;0.70;;;35.00;50.90;;;;;;4403801;32;20120;-75
2023/06/09 12:19:29;;;;;;;3.83;1.33;;;35.40;50.00;;;;;;4400131;32;20565;-77
2023/06/09 12:21:55;;;;;;;0.28;0.28;;;35.50;50.00;;;;;;4408320;32;20093;-76
2023/06/09 12:24:21;;;;;;;0.20;0.20;;;35.50;50.40;;;;;;4411318;32;20869;-78
2023/06/09 12:26:48;;;;;;;0.43;0.40;;;35.20;49.50;;;;;;4407990;32;20635;-77
2023/06/09 12:29:14;;;;;;;0.40;0.40;;;35.50;49.50;;;;;;4410195;32;20195;-76
2023/06/09 12:31:44;;;;;;;0.80;0.50;;;35.40;49.80;;;;;;4410683;32;20082;-77
2023/06/09 12:34:29;;;;;;;0.20;0.20;;;36.00;49.20;;;;;;4399026;32;20132;-74
2023/06/09 12:36:55;;;;;;;0.60;0.40;;;35.70;49.90;;;;;;4404474;32;20100;-77
2023/06/09 12:39:22;;;;;;;0.40;0.32;;;35.90;49.10;;;;;;4413471;32;20068;-78
2023/06/09 12:41:48;;;;;;;0.22;0.22;;;35.80;48.90;;;;;;4416029;32;20143;-83
2023/06/09 12:44:23;;;;;;;0.40;0.40;;;35.70;49.50;;;;;;4419613;32;20429;-79
2023/06/09 12:46:55;;;;;;;0.47;0.20;;;35.50;49.50;;;;;;4418003;32;20660;-77
2023/06/09 12:49:36;;;;;;;0.73;0.60;;;35.60;49.80;;;;;;4422218;32;20120;-79